createdAt,value
2022-09-04T00:02:31.761Z,2.60
2022-09-04T00:05:25.983Z,2.20
2022-09-04T00:08:29.267Z,2.20
2022-09-04T00:11:08.882Z,2.53
2022-09-04T00:13:48.812Z,2.57
2022-09-04T00:16:33.695Z,2.83
2022-09-04T00:19:15.318Z,2.70
2022-09-04T00:21:51.670Z,2.30
2022-09-04T00:24:25.416Z,2.40
2022-09-04T00:27:13.457Z,2.50
2022-09-04T00:30:07.958Z,2.43
2022-09-04T00:32:46.372Z,2.50
2022-09-04T00:35:25.963Z,2.30
2022-09-04T00:38:03.491Z,2.10
2022-09-04T00:40:37.771Z,2.73
2022-09-04T00:43:14.168Z,2.70
2022-09-04T00:45:47.499Z,2.50
2022-09-04T00:48:45.432Z,2.40
2022-09-04T00:51:33.616Z,2.43
2022-09-04T00:54:20.359Z,2.50
2022-09-04T00:57:14.103Z,2.47
2022-09-04T00:59:50.489Z,2.53
2022-09-04T01:02:45.040Z,1.77
2022-09-04T01:05:24.445Z,2.53
2022-09-04T01:08:04.985Z,2.13
2022-09-04T01:10:39.242Z,2.30
2022-09-04T01:13:25.363Z,2.50
2022-09-04T01:16:25.782Z,2.27
2022-09-04T01:19:02.879Z,1.90
2022-09-04T01:21:33.654Z,2.00
2022-09-04T01:24:31.613Z,2.20
2022-09-04T01:27:09.872Z,2.23
2022-09-04T01:30:10.128Z,2.30
2022-09-04T01:33:06.628Z,2.23
2022-09-04T01:36:01.236Z,2.37
2022-09-04T01:38:35.765Z,2.27
2022-09-04T01:41:19.458Z,2.10
2022-09-04T01:43:47.185Z,2.20
2022-09-04T01:46:37.911Z,2.20
2022-09-04T01:49:25.780Z,2.07
2022-09-04T01:52:31.044Z,2.20
2022-09-04T01:55:28.167Z,1.93
2022-09-04T01:58:30.851Z,2.20
2022-09-04T02:01:21.492Z,2.20
2022-09-04T02:04:18.690Z,2.27
2022-09-04T02:07:10.108Z,2.10
2022-09-04T02:10:12.879Z,2.03
2022-09-04T02:12:59.227Z,2.00
2022-09-04T02:15:33.600Z,2.10
2022-09-04T02:18:20.276Z,2.40
2022-09-04T02:21:11.714Z,2.30
2022-09-04T02:24:00.897Z,2.20
2022-09-04T02:26:57.027Z,2.27
2022-09-04T02:29:44.024Z,2.33
2022-09-04T02:32:25.969Z,2.30
2022-09-04T02:35:35.290Z,2.67
2022-09-04T02:38:08.956Z,2.40
2022-09-04T02:40:59.515Z,2.23
2022-09-04T02:43:28.683Z,2.23
2022-09-04T02:46:16.004Z,2.10
2022-09-04T02:49:03.432Z,2.40
2022-09-04T02:51:40.284Z,2.20
2022-09-04T02:54:50.818Z,2.40
2022-09-04T02:57:27.419Z,2.30
2022-09-04T03:00:24.460Z,2.20
2022-09-04T03:03:02.698Z,2.30
2022-09-04T03:05:35.036Z,2.40
2022-09-04T03:08:08.968Z,2.40
2022-09-04T03:11:04.969Z,2.43
2022-09-04T03:13:35.504Z,2.60
2022-09-04T03:16:29.060Z,2.00
2022-09-04T03:19:36.944Z,2.20
2022-09-04T03:22:43.399Z,2.13
2022-09-04T03:25:30.569Z,2.37
2022-09-04T03:27:58.047Z,2.47
2022-09-04T03:30:27.295Z,2.57
2022-09-04T03:33:13.344Z,2.90
2022-09-04T03:35:44.321Z,2.10
2022-09-04T03:38:30.273Z,2.43
2022-09-04T03:41:27.684Z,2.00
2022-09-04T03:44:28.292Z,2.40
2022-09-04T03:47:16.800Z,2.30
2022-09-04T03:50:03.012Z,2.07
2022-09-04T03:52:52.784Z,2.20
2022-09-04T03:55:33.654Z,2.40
2022-09-04T03:58:40.839Z,2.27
2022-09-04T04:01:42.890Z,2.43
2022-09-04T04:05:00.262Z,2.30
2022-09-04T04:07:50.881Z,2.57
2022-09-04T04:10:37.683Z,2.30
2022-09-04T04:13:33.504Z,2.53
2022-09-04T04:16:12.838Z,2.40
2022-09-04T04:19:11.077Z,2.30
2022-09-04T04:22:17.283Z,2.33
2022-09-04T04:25:02.164Z,2.60
2022-09-04T04:27:45.006Z,2.60
2022-09-04T04:30:15.071Z,2.80
2022-09-04T04:33:13.544Z,2.57
2022-09-04T04:35:54.823Z,2.43
2022-09-04T04:38:36.441Z,2.60
2022-09-04T04:41:11.960Z,2.50
2022-09-04T04:44:12.255Z,2.57
2022-09-04T04:47:06.297Z,2.60
2022-09-04T04:49:59.004Z,2.60
2022-09-04T04:52:45.891Z,2.60
2022-09-04T04:55:22.150Z,2.50
2022-09-04T04:58:20.733Z,2.87
2022-09-04T05:01:22.741Z,2.73
2022-09-04T05:04:31.025Z,3.97
2022-09-04T05:07:34.700Z,2.57
2022-09-04T05:10:17.256Z,2.77
2022-09-04T05:13:12.001Z,2.80
2022-09-04T05:16:09.360Z,3.10
2022-09-04T05:18:54.488Z,2.80
2022-09-04T05:21:25.385Z,2.67
2022-09-04T05:24:14.610Z,2.50
2022-09-04T05:26:55.492Z,2.63
2022-09-04T05:29:58.263Z,2.70
2022-09-04T05:32:37.947Z,2.80
2022-09-04T05:35:35.610Z,2.73
2022-09-04T05:38:16.066Z,3.00
2022-09-04T05:41:08.245Z,2.60
2022-09-04T05:43:57.606Z,2.90
2022-09-04T05:47:13.127Z,3.20
2022-09-04T05:50:00.562Z,3.30
2022-09-04T05:53:02.314Z,2.63
2022-09-04T05:55:51.377Z,2.63
2022-09-04T05:59:10.270Z,2.50
2022-09-04T06:01:53.373Z,2.53
2022-09-04T06:04:34.998Z,2.73
2022-09-04T06:07:19.225Z,2.70
2022-09-04T06:10:15.156Z,2.63
2022-09-04T06:13:20.157Z,3.90
2022-09-04T06:16:06.360Z,7.90
2022-09-04T06:18:57.127Z,5.80
2022-09-04T06:21:33.707Z,2.20
2022-09-04T06:24:24.751Z,2.60
2022-09-04T06:27:21.159Z,2.30
2022-09-04T06:30:10.192Z,2.03
2022-09-04T06:32:56.061Z,2.20
2022-09-04T06:35:37.416Z,2.27
2022-09-04T06:38:19.940Z,2.40
2022-09-04T06:41:02.521Z,1.90
2022-09-04T06:43:51.001Z,2.73
2022-09-04T06:46:46.406Z,2.63
2022-09-04T06:49:58.974Z,4.23
2022-09-04T06:53:04.011Z,2.10
2022-09-04T06:56:10.400Z,2.40
2022-09-04T06:59:01.021Z,2.50
2022-09-04T07:02:00.520Z,2.20
2022-09-04T07:04:40.491Z,2.50
2022-09-04T07:07:16.651Z,4.20
2022-09-04T07:09:49.037Z,3.80
2022-09-04T07:12:39.664Z,2.27
2022-09-04T07:15:29.699Z,3.93
2022-09-04T07:18:30.942Z,2.77
2022-09-04T07:21:41.135Z,3.17
2022-09-04T07:24:39.468Z,1.83
2022-09-04T07:27:36.414Z,2.20
2022-09-04T07:30:25.958Z,1.97
2022-09-04T07:33:15.261Z,2.50
2022-09-04T07:35:59.198Z,2.13
2022-09-04T07:38:43.649Z,3.37
2022-09-04T07:42:05.289Z,2.30
2022-09-04T07:44:44.980Z,5.90
2022-09-04T07:47:21.698Z,2.50
2022-09-04T07:50:27.751Z,3.50
2022-09-04T07:53:19.786Z,2.17
2022-09-04T07:56:00.483Z,2.30
2022-09-04T07:58:52.508Z,2.57
2022-09-04T08:01:41.238Z,2.83
2022-09-04T08:04:38.307Z,3.47
2022-09-04T08:07:13.967Z,2.43
2022-09-04T08:09:58.580Z,2.60
2022-09-04T08:12:48.757Z,2.37
2022-09-04T08:15:25.796Z,2.87
2022-09-04T08:18:20.200Z,2.60
2022-09-04T08:21:21.385Z,2.50
2022-09-04T08:24:26.683Z,2.40
2022-09-04T08:27:21.817Z,5.40
2022-09-04T08:30:04.422Z,2.60
2022-09-04T08:32:43.632Z,3.40
2022-09-04T08:35:42.548Z,3.00
2022-09-04T08:38:47.744Z,4.37
2022-09-04T08:41:41.771Z,4.03
2022-09-04T08:44:36.969Z,4.07
2022-09-04T08:47:30.035Z,2.30
2022-09-04T08:50:18.789Z,3.70
2022-09-04T08:53:18.067Z,2.60
2022-09-04T08:56:18.528Z,2.37
2022-09-04T08:59:11.442Z,2.70
2022-09-04T09:02:07.863Z,2.50
2022-09-04T09:05:17.070Z,2.80
2022-09-04T09:08:15.530Z,3.33
2022-09-04T09:11:02.277Z,3.40
2022-09-04T09:13:29.449Z,7.20
2022-09-04T09:16:20.017Z,2.67
2022-09-04T09:19:12.316Z,5.30
2022-09-04T09:21:45.583Z,2.97
2022-09-04T09:24:35.052Z,2.20
2022-09-04T09:27:11.733Z,2.40
2022-09-04T09:30:02.802Z,2.60
2022-09-04T09:33:04.215Z,2.43
2022-09-04T09:36:01.956Z,2.30
2022-09-04T09:38:38.916Z,2.13
2022-09-04T09:41:37.733Z,5.43
2022-09-04T09:44:33.471Z,4.13
2022-09-04T09:47:25.829Z,2.23
2022-09-04T09:50:21.786Z,2.20
2022-09-04T09:53:26.341Z,2.23
2022-09-04T09:56:41.324Z,3.63
2022-09-04T09:59:17.941Z,2.20
2022-09-04T10:02:16.574Z,2.10
2022-09-04T10:05:13.863Z,1.70
2022-09-04T10:08:11.874Z,3.00
2022-09-04T10:11:17.996Z,2.10
2022-09-04T10:14:16.681Z,2.00
2022-09-04T10:17:14.649Z,2.13
2022-09-04T10:19:57.740Z,2.30
2022-09-04T10:23:04.027Z,2.00
2022-09-04T10:25:49.756Z,2.00
2022-09-04T10:28:59.417Z,1.97
2022-09-04T10:31:26.970Z,1.80
2022-09-04T10:34:28.833Z,1.97
2022-09-04T10:37:25.295Z,1.80
2022-09-04T10:40:39.618Z,1.90
2022-09-04T10:43:27.852Z,2.03
2022-09-04T10:46:06.974Z,2.00
2022-09-04T10:49:00.227Z,1.93
2022-09-04T10:51:46.015Z,1.87
2022-09-04T10:54:48.073Z,1.80
2022-09-04T10:57:21.524Z,2.00
2022-09-04T11:00:07.917Z,2.25
2022-09-04T11:03:03.290Z,2.08
2022-09-04T11:05:51.768Z,2.10
2022-09-04T11:08:36.094Z,1.90
2022-09-04T11:11:13.278Z,2.30
2022-09-04T11:13:57.002Z,2.00
2022-09-04T11:16:39.199Z,2.40
2022-09-04T11:19:28.881Z,2.63
2022-09-04T11:22:27.340Z,2.10
2022-09-04T11:25:33.307Z,1.90
2022-09-04T11:28:34.924Z,2.00
2022-09-04T11:31:39.885Z,1.83
2022-09-04T11:34:42.617Z,2.47
2022-09-04T11:37:47.112Z,2.38
2022-09-04T11:41:01.482Z,3.38
2022-09-04T11:44:07.495Z,2.00
2022-09-04T11:47:23.320Z,3.83
2022-09-04T11:50:06.428Z,1.80
2022-09-04T11:53:02.615Z,1.80
2022-09-04T11:55:52.893Z,2.17
2022-09-04T11:58:47.195Z,2.53
2022-09-04T12:01:26.951Z,2.00
2022-09-04T12:04:10.342Z,1.90
2022-09-04T12:07:05.680Z,3.45
2022-09-04T12:09:44.057Z,3.30
2022-09-04T12:12:23.121Z,2.53
2022-09-04T12:15:12.173Z,4.18
2022-09-04T12:18:08.366Z,3.30
2022-09-04T12:20:57.836Z,2.50
2022-09-04T12:23:50.903Z,2.03
2022-09-04T12:26:29.948Z,1.98
2022-09-04T12:29:27.075Z,2.03
2022-09-04T12:32:09.350Z,1.65
2022-09-04T12:35:04.339Z,2.05
2022-09-04T12:38:06.645Z,2.10
2022-09-04T12:40:52.654Z,2.10
2022-09-04T12:43:55.950Z,1.90
2022-09-04T12:46:55.914Z,2.00
2022-09-04T12:49:51.395Z,2.20
2022-09-04T12:52:21.475Z,2.00
2022-09-04T12:55:14.700Z,1.73
2022-09-04T12:58:17.626Z,2.20
2022-09-04T13:01:08.497Z,2.25
2022-09-04T13:03:59.945Z,2.05
2022-09-04T13:06:38.717Z,2.03
2022-09-04T13:09:24.443Z,2.10
2022-09-04T13:12:11.090Z,2.08
2022-09-04T13:14:45.928Z,2.25
2022-09-04T13:17:19.593Z,2.00
2022-09-04T13:20:06.003Z,1.90
2022-09-04T13:22:57.916Z,1.92
2022-09-04T13:25:27.225Z,2.17
2022-09-04T13:27:57.488Z,1.80
2022-09-04T13:30:26.546Z,2.05
2022-09-04T13:32:58.655Z,2.03
2022-09-04T13:35:44.519Z,2.10
2022-09-04T13:38:58.496Z,1.80
2022-09-04T13:41:33.081Z,1.70
2022-09-04T13:44:24.433Z,1.80
2022-09-04T13:47:14.033Z,2.85
2022-09-04T13:49:56.434Z,6.13
2022-09-04T13:52:32.419Z,2.10
2022-09-04T13:55:28.826Z,2.30
2022-09-04T13:58:10.456Z,14.48
2022-09-04T14:00:46.219Z,3.50
2022-09-04T14:03:39.587Z,2.00
2022-09-04T14:06:14.733Z,1.70
2022-09-04T14:08:43.961Z,1.90
2022-09-04T14:11:39.300Z,2.00
2022-09-04T14:14:30.894Z,1.92
2022-09-04T14:16:59.944Z,1.90
2022-09-04T14:20:05.131Z,3.30
2022-09-04T14:23:20.774Z,2.20
2022-09-04T14:26:26.569Z,1.90
2022-09-04T14:29:15.944Z,1.90
2022-09-04T14:31:56.620Z,2.40
2022-09-04T14:35:08.473Z,1.88
2022-09-04T14:38:11.181Z,1.85
2022-09-04T14:40:56.753Z,1.77
2022-09-04T14:43:34.940Z,1.70
2022-09-04T14:46:07.386Z,12.93
2022-09-04T14:48:40.368Z,2.00
2022-09-04T14:51:35.384Z,1.80
2022-09-04T14:54:03.882Z,2.13
2022-09-04T14:56:50.516Z,2.00
2022-09-04T14:59:35.672Z,1.77
2022-09-04T15:02:08.996Z,1.85
2022-09-04T15:04:47.095Z,1.70
2022-09-04T15:07:25.010Z,1.80
2022-09-04T15:09:54.805Z,1.95
2022-09-04T15:12:34.437Z,1.80
2022-09-04T15:15:32.696Z,1.83
2022-09-04T15:18:23.890Z,1.77
2022-09-04T15:21:02.176Z,1.90
2022-09-04T15:23:48.062Z,2.10
2022-09-04T15:26:34.409Z,1.90
2022-09-04T15:29:19.084Z,1.77
2022-09-04T15:31:46.741Z,2.40
2022-09-04T15:34:24.484Z,2.50
2022-09-04T15:36:51.919Z,2.63
2022-09-04T15:39:32.565Z,1.73
2022-09-04T15:42:00.138Z,1.80
2022-09-04T15:44:42.580Z,1.70
2022-09-04T15:47:42.440Z,4.10
2022-09-04T15:50:32.696Z,8.05
2022-09-04T15:53:27.216Z,2.90
2022-09-04T15:56:09.323Z,2.10
2022-09-04T15:58:43.193Z,4.63
2022-09-04T16:01:23.266Z,2.50
2022-09-04T16:03:52.223Z,1.88
2022-09-04T16:06:27.129Z,2.20
2022-09-04T16:08:58.183Z,2.13
2022-09-04T16:11:34.301Z,2.15
2022-09-04T16:14:11.625Z,2.17
2022-09-04T16:16:49.364Z,1.85
2022-09-04T16:19:22.796Z,1.73
2022-09-04T16:22:05.710Z,1.90
2022-09-04T16:24:40.972Z,2.25
2022-09-04T16:27:14.052Z,1.70
2022-09-04T16:29:51.008Z,2.10
2022-09-04T16:32:24.965Z,1.98
2022-09-04T16:34:57.980Z,2.50
2022-09-04T16:37:34.853Z,1.90
2022-09-04T16:40:11.801Z,2.40
2022-09-04T16:42:47.353Z,1.90
2022-09-04T16:45:21.156Z,2.20
2022-09-04T16:47:55.226Z,2.00
2022-09-04T16:50:46.618Z,1.70
2022-09-04T16:53:19.292Z,1.80
2022-09-04T16:55:58.655Z,2.15
2022-09-04T16:58:39.895Z,1.85
2022-09-04T17:01:19.822Z,2.00
2022-09-04T17:04:13.549Z,2.17
2022-09-04T17:06:44.636Z,1.98
2022-09-04T17:09:32.143Z,2.10
2022-09-04T17:12:17.415Z,1.90
2022-09-04T17:15:06.548Z,2.70
2022-09-04T17:17:41.045Z,2.00
2022-09-04T17:22:26.365Z,1.77
2022-09-04T17:29:05.066Z,2.30
2022-09-04T17:29:19.376Z,1.80
2022-09-04T17:29:36.049Z,2.25
2022-09-04T17:33:19.868Z,2.00
2022-09-04T17:38:38.613Z,2.30
2022-09-04T17:40:51.767Z,2.10
2022-09-04T17:41:59.441Z,1.63
2022-09-04T17:45:03.219Z,2.00
2022-09-04T17:47:42.533Z,3.10
2022-09-04T17:50:17.132Z,3.47
2022-09-04T17:52:56.577Z,8.63
2022-09-04T17:55:25.716Z,7.93
2022-09-04T17:58:26.860Z,5.23
2022-09-04T18:01:14.530Z,3.90
2022-09-04T18:04:27.072Z,2.67
2022-09-04T18:07:33.619Z,3.43
2022-09-04T18:10:19.211Z,2.60
2022-09-04T18:13:06.159Z,2.53
2022-09-04T18:15:42.925Z,3.20
2022-09-04T18:18:36.503Z,2.87
2022-09-04T18:21:16.574Z,2.80
2022-09-04T18:24:09.755Z,3.00
2022-09-04T18:27:11.579Z,3.07
2022-09-04T18:32:29.042Z,2.87
2022-09-04T18:37:11.415Z,3.10
2022-09-04T18:37:23.201Z,3.70
2022-09-04T18:39:41.617Z,5.97
2022-09-04T18:48:39.629Z,4.17
2022-09-04T18:50:31.761Z,3.50
2022-09-04T18:50:38.248Z,3.47
2022-09-04T18:51:30.771Z,4.80
2022-09-04T18:54:12.069Z,3.23
2022-09-04T18:56:44.411Z,3.47
2022-09-04T18:59:28.265Z,3.77
2022-09-04T19:02:40.657Z,3.80
2022-09-04T19:05:15.708Z,3.60
2022-09-04T19:08:02.115Z,3.70
2022-09-04T19:10:47.174Z,3.90
2022-09-04T19:13:42.252Z,3.60
2022-09-04T19:16:20.183Z,3.83
2022-09-04T19:19:04.696Z,3.73
2022-09-04T19:21:46.321Z,3.80
2022-09-04T19:24:38.103Z,4.10
2022-09-04T19:27:21.988Z,3.90
2022-09-04T19:30:18.250Z,4.80
2022-09-04T19:33:15.374Z,4.30
2022-09-04T19:35:42.643Z,4.27
2022-09-04T19:42:14.171Z,4.20
2022-09-04T19:46:00.852Z,5.57
2022-09-04T19:46:08.364Z,4.70
2022-09-04T19:47:37.455Z,4.50
2022-09-04T19:53:18.395Z,4.50
2022-09-04T19:53:38.797Z,4.90
2022-09-04T19:56:29.295Z,4.63
2022-09-04T19:59:05.924Z,6.00
2022-09-04T20:01:52.149Z,5.10
2022-09-04T20:04:46.936Z,5.03
2022-09-04T20:07:37.205Z,6.03
2022-09-04T20:10:20.151Z,7.30
2022-09-04T20:12:55.812Z,7.33
2022-09-04T20:15:31.564Z,6.30
2022-09-04T20:18:08.425Z,6.13
2022-09-04T20:21:04.211Z,6.67
2022-09-04T20:23:46.687Z,6.53
2022-09-04T20:26:21.291Z,7.50
2022-09-04T20:28:58.452Z,7.97
2022-09-04T20:31:38.924Z,6.40
2022-09-04T20:34:20.866Z,5.57
2022-09-04T20:36:57.608Z,5.53
2022-09-04T20:39:52.817Z,6.10
2022-09-04T20:42:27.649Z,6.03
2022-09-04T20:47:35.165Z,5.70
2022-09-04T20:52:43.430Z,5.80
2022-09-04T20:52:53.858Z,5.20
2022-09-04T20:54:06.673Z,5.87
2022-09-04T20:59:21.028Z,5.83
2022-09-04T21:03:10.465Z,5.13
2022-09-04T21:03:28.206Z,5.87
2022-09-04T21:06:07.475Z,5.97
2022-09-04T21:09:05.942Z,6.07
2022-09-04T21:11:49.988Z,5.80
2022-09-04T21:14:20.992Z,5.37
2022-09-04T21:17:01.996Z,6.17
2022-09-04T21:20:22.030Z,5.97
2022-09-04T21:22:55.096Z,6.47
2022-09-04T21:25:28.465Z,5.70
2022-09-04T21:28:19.868Z,5.80
2022-09-04T21:31:12.803Z,7.13
2022-09-04T21:34:15.569Z,5.87
2022-09-04T21:36:59.711Z,6.90
2022-09-04T21:39:47.059Z,6.50
2022-09-04T21:42:17.179Z,5.70
2022-09-04T21:45:06.632Z,6.20
2022-09-04T21:48:01.700Z,5.90
2022-09-04T21:50:48.591Z,5.77
2022-09-04T21:53:27.828Z,6.37
2022-09-04T22:01:06.169Z,6.17
2022-09-04T22:02:42.248Z,6.50
2022-09-04T22:02:52.562Z,6.10
2022-09-04T22:05:32.671Z,5.30
2022-09-04T22:11:46.601Z,5.50
2022-09-04T22:13:42.210Z,5.23
2022-09-04T22:14:13.891Z,5.43
2022-09-04T22:16:56.482Z,5.00
2022-09-04T22:19:43.991Z,5.60
2022-09-04T22:22:39.524Z,5.00
2022-09-04T22:25:19.435Z,4.87
2022-09-04T22:28:08.596Z,5.30
2022-09-04T22:30:55.831Z,5.00
2022-09-04T22:34:27.448Z,4.87
2022-09-04T22:37:12.939Z,4.67
2022-09-04T22:40:17.623Z,4.50
2022-09-04T22:42:56.304Z,5.27
2022-09-04T22:45:23.741Z,5.47
2022-09-04T22:48:00.023Z,5.07
2022-09-04T22:50:50.218Z,4.77
2022-09-04T22:53:55.131Z,4.20
2022-09-04T22:56:37.489Z,4.60
2022-09-04T22:59:27.351Z,4.70
2022-09-04T23:02:54.093Z,4.63
2022-09-04T23:06:18.917Z,4.90
2022-09-04T23:13:46.936Z,4.40
2022-09-04T23:14:03.083Z,4.47
2022-09-04T23:15:34.344Z,4.50
2022-09-04T23:22:44.413Z,4.47
2022-09-04T23:26:38.631Z,4.47
2022-09-04T23:26:49.803Z,4.30
2022-09-04T23:28:21.448Z,4.17
2022-09-04T23:31:35.087Z,4.70
2022-09-04T23:34:27.872Z,4.70
2022-09-04T23:37:16.658Z,4.70
2022-09-04T23:40:10.401Z,4.37
2022-09-04T23:42:59.211Z,4.47
2022-09-04T23:45:26.683Z,4.73
2022-09-04T23:48:12.808Z,4.50
2022-09-04T23:50:58.654Z,4.37
2022-09-04T23:53:35.765Z,4.33
2022-09-04T23:56:08.932Z,4.00
2022-09-04T23:59:18.957Z,4.60
